Archival Weather

Joint Base Andrews

Camp Springs, Maryland (KADW)

Report from: Tuesday, February 27, 2024 11:55 AM EST
Current time: Wednesday, May 29, 2024 9:12 PM EDT

Current weather – Weather history – Daily summaries
Weather forecast

Temperature18.0°C (64.4°F)
Dew point3.1°C (37.6°F)
Winds 14 kts (7.2 m/s, 16.1 mph) South (180°)
Visibility10 mi. (16.1 km)
Clouds Scattered clouds 16,000 ft. (4,877 m)
Scattered clouds 20,000 ft. (6,096 m)
Altimeter29.90 in.Hg (1013 mB)
Relative humidity37 %
Density altitude469 ft. (143 m)
Sea-level pressure101.3 kPa (1013 mB, 29.92 in.Hg)
Remarks Fully automated report
System requires maintenance
Automated weather observing station with precipitation discriminator
Flight conditions Visual Meteorological Conditions
Raw dataKADW 271655Z AUTO 18014KT 10SM SCT160 SCT200 18/03 A2990 RMK AO2 SLP132 T01800031 $
An error has occurred. This application may no longer respond until reloaded. Reload 🗙